Time;durP1;ratioP1;P1;durP2;ratioP2;P2;SDS_P1;SDS_P2;PMS_P1;PMS_P2;Temp;Humidity;BMP_temperature;BMP_pressure;BME280_temperature;BME280_humidity;BME280_pressure;Samples;Min_cycle;Max_cycle;Signal;HPM_P1;HPM_P2
2023/06/03 00:02:06;;;;;;;1.30;1.00;;;;;;;;;;5057193;28;20060;-74
2023/06/03 00:04:32;;;;;;;2.65;0.80;;;;;;;;;;5063996;28;20131;-73
2023/06/03 00:06:59;;;;;;;4.97;1.00;;;;;;;;;;5057132;28;20051;-74
2023/06/03 00:09:25;;;;;;;2.13;1.10;;;;;;;;;;5061024;28;20044;-74
2023/06/03 00:11:51;;;;;;;3.78;1.30;;;;;;;;;;5063318;28;20487;-74
2023/06/03 00:14:18;;;;;;;1.92;1.02;;;;;;;;;;5060726;28;20047;-74
2023/06/03 00:16:48;;;;;;;1.27;0.70;;;;;;;;;;5057856;28;20155;-74
2023/06/03 00:19:14;;;;;;;1.75;1.00;;;;;;;;;;5059589;28;20040;-73
2023/06/03 00:21:45;;;;;;;2.83;0.82;;;;;;;;;;5060148;28;20040;-74
2023/06/03 00:24:11;;;;;;;4.00;1.42;;;;;;;;;;5058973;28;20048;-74
2023/06/03 00:26:37;;;;;;;5.15;1.30;;;;;;;;;;5059481;28;20055;-74
2023/06/03 00:29:03;;;;;;;2.88;1.15;;;;;;;;;;5077791;28;20551;-74
2023/06/03 00:31:29;;;;;;;1.35;1.13;;;;;;;;;;5071527;28;20083;-74
2023/06/03 00:33:56;;;;;;;1.73;1.05;;;;;;;;;;5063010;28;20036;-73
2023/06/03 00:36:22;;;;;;;4.50;1.63;;;;;;;;;;5054907;28;20039;-73
2023/06/03 00:38:48;;;;;;;6.85;1.17;;;;;;;;;;5060926;28;20765;-75
2023/06/03 00:41:14;;;;;;;3.67;0.95;;;;;;;;;;5060352;28;20063;-73
2023/06/03 00:43:40;;;;;;;3.17;1.00;;;;;;;;;;5058832;28;20510;-74
2023/06/03 00:46:07;;;;;;;4.00;1.10;;;;;;;;;;5061770;28;20043;-74
2023/06/03 00:48:33;;;;;;;1.10;0.77;;;;;;;;;;5061429;28;20486;-74
2023/06/03 00:50:59;;;;;;;1.65;1.00;;;;;;;;;;5062336;28;20040;-74
2023/06/03 00:53:26;;;;;;;1.85;1.13;;;;;;;;;;5060921;28;20161;-74
2023/06/03 00:55:52;;;;;;;2.95;1.20;;;;;;;;;;5053426;28;20040;-74
2023/06/03 00:58:18;;;;;;;4.72;0.90;;;;;;;;;;5060508;28;20051;-74
2023/06/03 01:00:44;;;;;;;1.63;1.13;;;;;;;;;;5065264;28;20492;-74
2023/06/03 01:03:13;;;;;;;3.92;1.15;;;;;;;;;;5049651;28;20036;-74
2023/06/03 01:05:40;;;;;;;2.80;1.05;;;;;;;;;;5065520;28;20127;-74
2023/06/03 01:08:15;;;;;;;3.35;0.95;;;;;;;;;;5066062;28;20483;-74
2023/06/03 01:10:41;;;;;;;1.38;0.90;;;;;;;;;;5065189;28;20048;-74
2023/06/03 01:13:21;;;;;;;1.95;0.95;;;;;;;;;;5068224;28;20044;-74
2023/06/03 01:15:48;;;;;;;3.55;0.95;;;;;;;;;;5064029;28;20849;-73
2023/06/03 01:18:16;;;;;;;3.25;1.35;;;;;;;;;;5065218;28;20196;-74
2023/06/03 01:20:43;;;;;;;2.30;1.20;;;;;;;;;;5063247;28;20052;-74
2023/06/03 01:23:12;;;;;;;2.10;1.15;;;;;;;;;;5062994;28;20076;-74
2023/06/03 01:25:41;;;;;;;1.67;0.98;;;;;;;;;;5064110;28;21045;-74
2023/06/03 01:28:07;;;;;;;2.65;0.98;;;;;;;;;;5064095;28;20094;-73
2023/06/03 01:30:34;;;;;;;4.35;0.98;;;;;;;;;;5065476;28;21998;-74
2023/06/03 01:33:02;;;;;;;1.60;1.00;;;;;;;;;;5063135;28;20075;-73
2023/06/03 01:35:28;;;;;;;3.47;1.10;;;;;;;;;;5063981;28;20048;-74
2023/06/03 01:37:55;;;;;;;4.22;1.25;;;;;;;;;;5067025;28;20176;-73
2023/06/03 01:40:21;;;;;;;3.10;1.23;;;;;;;;;;5062142;28;20112;-73
2023/06/03 01:42:47;;;;;;;4.90;1.33;;;;;;;;;;5066968;28;20050;-74
2023/06/03 01:45:13;;;;;;;4.22;1.38;;;;;;;;;;5063292;28;20054;-73
2023/06/03 01:47:39;;;;;;;1.73;1.30;;;;;;;;;;5081632;27;20051;-74
2023/06/03 01:50:06;;;;;;;4.22;1.30;;;;;;;;;;5066990;28;20069;-73
2023/06/03 01:52:32;;;;;;;3.08;1.10;;;;;;;;;;5065056;28;20052;-73
2023/06/03 01:54:58;;;;;;;3.30;1.65;;;;;;;;;;5067888;28;20058;-73
2023/06/03 01:57:25;;;;;;;1.63;1.15;;;;;;;;;;5066577;28;20036;-73
2023/06/03 01:59:52;;;;;;;4.57;1.88;;;;;;;;;;5066981;28;22820;-74
2023/06/03 02:02:18;;;;;;;1.08;0.90;;;;;;;;;;5064821;28;20392;-73
2023/06/03 02:04:45;;;;;;;1.33;1.15;;;;;;;;;;5044900;28;20506;-73
2023/06/03 02:07:11;;;;;;;5.50;1.90;;;;;;;;;;5061848;28;20737;-74
2023/06/03 02:09:37;;;;;;;2.58;1.73;;;;;;;;;;5064985;28;20122;-74
2023/06/03 02:12:04;;;;;;;3.67;1.13;;;;;;;;;;5062027;28;20044;-73
2023/06/03 02:14:32;;;;;;;1.73;1.17;;;;;;;;;;5063398;28;20077;-73
2023/06/03 02:17:00;;;;;;;4.50;2.25;;;;;;;;;;5060896;28;20512;-73
2023/06/03 02:19:26;;;;;;;1.50;1.20;;;;;;;;;;5061181;28;20090;-73
2023/06/03 02:21:56;;;;;;;4.85;1.83;;;;;;;;;;5055780;28;20051;-73
2023/06/03 02:24:22;;;;;;;3.13;1.30;;;;;;;;;;5059711;28;20052;-73
2023/06/03 02:26:52;;;;;;;1.90;1.30;;;;;;;;;;5041199;28;20394;-73
2023/06/03 02:29:19;;;;;;;5.28;1.48;;;;;;;;;;5055037;28;20044;-73
2023/06/03 02:31:46;;;;;;;4.82;1.40;;;;;;;;;;5060519;28;20423;-73
2023/06/03 02:34:12;;;;;;;2.28;1.40;;;;;;;;;;5060586;28;20044;-73
2023/06/03 02:36:42;;;;;;;2.25;1.30;;;;;;;;;;5060178;28;20089;-74
2023/06/03 02:39:09;;;;;;;2.28;1.30;;;;;;;;;;5060321;28;20056;-73
2023/06/03 02:41:35;;;;;;;2.72;1.60;;;;;;;;;;5062776;28;20040;-73
2023/06/03 02:44:01;;;;;;;7.10;1.48;;;;;;;;;;5061736;28;20163;-73
2023/06/03 02:46:27;;;;;;;1.77;1.38;;;;;;;;;;5060582;28;20055;-73
2023/06/03 02:48:54;;;;;;;5.30;1.70;;;;;;;;;;5045055;28;20059;-73
2023/06/03 02:51:20;;;;;;;1.80;1.30;;;;;;;;;;5060514;28;20171;-73
2023/06/03 02:53:46;;;;;;;3.50;1.50;;;;;;;;;;5058249;28;20052;-73
2023/06/03 02:56:12;;;;;;;2.60;1.58;;;;;;;;;;5058297;28;20051;-73
2023/06/03 02:58:40;;;;;;;5.32;1.38;;;;;;;;;;5060426;28;20035;-73
2023/06/03 03:01:06;;;;;;;11.75;2.10;;;;;;;;;;5056987;28;20122;-73
2023/06/03 03:03:35;;;;;;;3.03;1.50;;;;;;;;;;5059355;28;20040;-73
2023/06/03 03:06:03;;;;;;;4.82;1.30;;;;;;;;;;5060854;28;22005;-73
2023/06/03 03:08:30;;;;;;;2.28;1.40;;;;;;;;;;5059680;28;20735;-73
2023/06/03 03:10:56;;;;;;;2.47;1.45;;;;;;;;;;5059995;28;20043;-73
2023/06/03 03:13:22;;;;;;;2.03;1.27;;;;;;;;;;5057444;28;20043;-73
2023/06/03 03:15:48;;;;;;;4.30;1.65;;;;;;;;;;5060715;28;20040;-74
2023/06/03 03:18:15;;;;;;;3.05;1.60;;;;;;;;;;5057822;28;20047;-74
2023/06/03 03:20:41;;;;;;;1.85;1.50;;;;;;;;;;5059445;28;20094;-73
2023/06/03 03:23:07;;;;;;;5.15;1.42;;;;;;;;;;5061668;28;20070;-74
2023/06/03 03:25:34;;;;;;;3.30;1.52;;;;;;;;;;5062020;28;20134;-74
2023/06/03 03:28:01;;;;;;;5.35;1.60;;;;;;;;;;5062523;28;20614;-74
2023/06/03 03:30:27;;;;;;;2.40;1.40;;;;;;;;;;5060189;28;20964;-73
2023/06/03 03:32:53;;;;;;;1.75;1.40;;;;;;;;;;5061606;28;20064;-73
2023/06/03 03:35:20;;;;;;;2.35;1.30;;;;;;;;;;5057158;28;20105;-73
2023/06/03 03:37:46;;;;;;;7.03;1.60;;;;;;;;;;5060411;28;20044;-73
2023/06/03 03:40:20;;;;;;;1.52;1.40;;;;;;;;;;5060495;28;20043;-73
2023/06/03 03:42:52;;;;;;;5.85;1.35;;;;;;;;;;5057736;28;20123;-74
2023/06/03 03:45:19;;;;;;;3.33;1.50;;;;;;;;;;5058208;28;20076;-73
2023/06/03 03:47:48;;;;;;;3.03;1.55;;;;;;;;;;5056711;28;20128;-73
2023/06/03 03:50:33;;;;;;;5.30;1.50;;;;;;;;;;5057964;28;20044;-73
2023/06/03 03:53:00;;;;;;;4.90;1.67;;;;;;;;;;5056636;28;20048;-74
2023/06/03 03:55:27;;;;;;;4.10;1.42;;;;;;;;;;5071152;28;20087;-73
2023/06/03 03:57:53;;;;;;;3.78;1.63;;;;;;;;;;5042829;28;20050;-73
2023/06/03 04:00:22;;;;;;;4.05;1.38;;;;;;;;;;5057818;28;20141;-73
2023/06/03 04:02:53;;;;;;;3.00;1.48;;;;;;;;;;5058695;28;20066;-73
2023/06/03 04:05:22;;;;;;;3.20;1.90;;;;;;;;;;5059197;28;20044;-74
2023/06/03 04:07:49;;;;;;;1.85;1.20;;;;;;;;;;5055285;28;20048;-73
2023/06/03 04:10:15;;;;;;;1.92;1.30;;;;;;;;;;5057650;28;20063;-73
2023/06/03 04:12:42;;;;;;;8.18;1.60;;;;;;;;;;5056159;28;20135;-74
2023/06/03 04:15:09;;;;;;;4.03;1.50;;;;;;;;;;5058298;28;20074;-73
2023/06/03 04:17:38;;;;;;;4.15;1.38;;;;;;;;;;5061896;28;20051;-73
2023/06/03 04:20:28;;;;;;;3.40;1.30;;;;;;;;;;5072803;28;20036;-73
2023/06/03 04:22:54;;;;;;;3.67;1.58;;;;;;;;;;5080201;28;20131;-74
2023/06/03 04:25:20;;;;;;;5.43;1.45;;;;;;;;;;5081433;28;20048;-73
2023/06/03 04:27:46;;;;;;;3.47;1.75;;;;;;;;;;5070024;28;20077;-73
2023/06/03 04:30:12;;;;;;;4.68;1.58;;;;;;;;;;5070821;28;20044;-73
2023/06/03 04:32:38;;;;;;;3.83;1.42;;;;;;;;;;5068157;28;20098;-73
2023/06/03 04:35:04;;;;;;;5.30;1.50;;;;;;;;;;5062107;28;20141;-73
2023/06/03 04:37:31;;;;;;;3.92;1.52;;;;;;;;;;5062852;28;20093;-73
2023/06/03 04:39:58;;;;;;;3.17;1.90;;;;;;;;;;5057416;28;20043;-73
2023/06/03 04:42:26;;;;;;;6.95;1.45;;;;;;;;;;5039624;28;20044;-73
2023/06/03 04:44:53;;;;;;;2.97;1.70;;;;;;;;;;5060242;28;20043;-73
2023/06/03 04:47:19;;;;;;;6.78;1.85;;;;;;;;;;5037615;28;20040;-73
2023/06/03 04:49:48;;;;;;;2.15;1.40;;;;;;;;;;5058220;28;20120;-73
2023/06/03 04:52:14;;;;;;;4.15;1.50;;;;;;;;;;5053434;28;20044;-73
2023/06/03 04:54:40;;;;;;;4.15;1.85;;;;;;;;;;5056790;28;20056;-74
2023/06/03 04:57:07;;;;;;;4.40;1.88;;;;;;;;;;5056171;28;20327;-73
2023/06/03 04:59:33;;;;;;;3.28;1.30;;;;;;;;;;5057334;28;21036;-74
2023/06/03 05:02:00;;;;;;;2.20;1.30;;;;;;;;;;5055495;28;20135;-73
2023/06/03 05:04:29;;;;;;;7.55;1.70;;;;;;;;;;5057862;28;20576;-74
2023/06/03 05:06:55;;;;;;;4.60;1.63;;;;;;;;;;5055870;28;20127;-74
2023/06/03 05:09:22;;;;;;;3.17;1.10;;;;;;;;;;5057958;28;20032;-74
2023/06/03 05:11:48;;;;;;;3.03;1.52;;;;;;;;;;5057084;28;20044;-74
2023/06/03 05:14:14;;;;;;;3.33;1.30;;;;;;;;;;5069373;28;20044;-74
2023/06/03 05:16:40;;;;;;;3.83;1.70;;;;;;;;;;5059092;28;20037;-74
2023/06/03 05:19:06;;;;;;;1.17;1.02;;;;;;;;;;5055198;28;20044;-74
2023/06/03 05:21:32;;;;;;;1.65;1.23;;;;;;;;;;5038131;28;20462;-74
2023/06/03 05:23:59;;;;;;;3.10;1.63;;;;;;;;;;5057233;28;20062;-74
2023/06/03 05:26:25;;;;;;;3.22;1.20;;;;;;;;;;5052819;28;20044;-73
2023/06/03 05:28:51;;;;;;;7.10;1.67;;;;;;;;;;5055722;28;20043;-74
2023/06/03 05:31:17;;;;;;;3.15;1.25;;;;;;;;;;5057160;28;20044;-74
2023/06/03 05:33:43;;;;;;;2.63;1.48;;;;;;;;;;5052551;28;20043;-73
2023/06/03 05:36:10;;;;;;;1.48;1.27;;;;;;;;;;5053740;28;20051;-73
2023/06/03 05:38:36;;;;;;;3.65;1.73;;;;;;;;;;5057007;28;21914;-73
2023/06/03 05:41:03;;;;;;;4.78;2.05;;;;;;;;;;5057541;28;20101;-74
2023/06/03 05:43:30;;;;;;;5.70;1.85;;;;;;;;;;5053687;28;20059;-73
2023/06/03 05:45:56;;;;;;;3.97;1.55;;;;;;;;;;5072976;28;20133;-74
2023/06/03 05:48:22;;;;;;;3.47;1.42;;;;;;;;;;5056491;28;20055;-74
2023/06/03 05:50:52;;;;;;;1.50;1.13;;;;;;;;;;5057207;28;20062;-74
2023/06/03 05:53:19;;;;;;;6.18;1.35;;;;;;;;;;5056431;28;20112;-74
2023/06/03 05:55:45;;;;;;;3.25;1.20;;;;;;;;;;5058835;28;20155;-74
2023/06/03 05:58:11;;;;;;;5.25;1.20;;;;;;;;;;5054855;28;20048;-74
2023/06/03 06:00:37;;;;;;;4.53;1.30;;;;;;;;;;5061622;28;20064;-74
2023/06/03 06:03:03;;;;;;;4.88;1.30;;;;;;;;;;5060428;28;20055;-74
2023/06/03 06:05:30;;;;;;;4.40;1.30;;;;;;;;;;5060503;28;20052;-74
2023/06/03 06:07:56;;;;;;;3.03;1.20;;;;;;;;;;5057048;28;20040;-74
2023/06/03 06:10:22;;;;;;;2.22;1.33;;;;;;;;;;5058487;28;20048;-74
2023/06/03 06:12:48;;;;;;;7.78;1.30;;;;;;;;;;5056361;28;20444;-74
2023/06/03 06:15:14;;;;;;;5.75;1.30;;;;;;;;;;5049237;28;20500;-73
2023/06/03 06:17:40;;;;;;;3.35;1.25;;;;;;;;;;5058331;28;20068;-73
2023/06/03 06:20:07;;;;;;;3.17;1.10;;;;;;;;;;5057607;28;20044;-74
2023/06/03 06:22:33;;;;;;;4.80;1.50;;;;;;;;;;5057007;28;20072;-74
2023/06/03 06:24:59;;;;;;;3.13;1.40;;;;;;;;;;5058027;28;20044;-74
2023/06/03 06:27:25;;;;;;;3.67;1.30;;;;;;;;;;5051476;28;20039;-74
2023/06/03 06:29:52;;;;;;;3.25;1.33;;;;;;;;;;5054680;28;20047;-74
2023/06/03 06:32:22;;;;;;;2.58;1.80;;;;;;;;;;5071593;27;20171;-74
2023/06/03 06:34:49;;;;;;;4.05;1.20;;;;;;;;;;5059687;28;20480;-74
2023/06/03 06:37:15;;;;;;;2.70;1.50;;;;;;;;;;5073583;28;20399;-74
2023/06/03 06:39:41;;;;;;;1.73;1.27;;;;;;;;;;5058917;28;20055;-74
2023/06/03 06:42:11;;;;;;;1.45;1.10;;;;;;;;;;5056821;28;20044;-73
2023/06/03 06:44:47;;;;;;;5.85;1.50;;;;;;;;;;5058630;28;20149;-76
2023/06/03 06:47:35;;;;;;;4.68;1.48;;;;;;;;;;5063669;28;20047;-77
2023/06/03 06:50:01;;;;;;;6.85;1.67;;;;;;;;;;5060253;28;20174;-77
2023/06/03 06:52:27;;;;;;;4.97;1.50;;;;;;;;;;5062310;28;20044;-76
2023/06/03 06:54:58;;;;;;;2.35;1.77;;;;;;;;;;5062556;28;20050;-77
2023/06/03 06:57:27;;;;;;;2.65;1.52;;;;;;;;;;5061548;28;20041;-75
2023/06/03 06:59:53;;;;;;;2.33;1.52;;;;;;;;;;5058067;28;20357;-74
2023/06/03 07:02:20;;;;;;;1.77;1.20;;;;;;;;;;5057354;28;20519;-74
2023/06/03 07:04:49;;;;;;;7.47;1.83;;;;;;;;;;5061767;28;20880;-75
2023/06/03 07:07:15;;;;;;;3.30;1.50;;;;;;;;;;5042634;28;20563;-74
2023/06/03 07:09:42;;;;;;;7.43;2.00;;;;;;;;;;5062847;28;20389;-75
2023/06/03 07:12:08;;;;;;;5.68;1.63;;;;;;;;;;5056806;28;20480;-74
2023/06/03 07:14:35;;;;;;;3.30;2.08;;;;;;;;;;5057836;28;20119;-74
2023/06/03 07:17:01;;;;;;;2.80;1.85;;;;;;;;;;5070798;28;20078;-73
2023/06/03 07:19:33;;;;;;;4.45;1.80;;;;;;;;;;5054284;28;20040;-72
2023/06/03 07:22:01;;;;;;;2.17;1.70;;;;;;;;;;5047161;28;20043;-72
2023/06/03 07:24:27;;;;;;;3.63;1.85;;;;;;;;;;5054995;28;20047;-74
2023/06/03 07:26:53;;;;;;;3.50;2.20;;;;;;;;;;5055132;28;20733;-74
2023/06/03 07:29:20;;;;;;;5.32;1.83;;;;;;;;;;5063159;28;21439;-74
2023/06/03 07:31:47;;;;;;;4.75;2.05;;;;;;;;;;5059849;28;20040;-74
2023/06/03 07:34:16;;;;;;;3.80;1.85;;;;;;;;;;5053486;28;20067;-74
2023/06/03 07:36:42;;;;;;;4.10;1.77;;;;;;;;;;5044550;28;20086;-73
2023/06/03 07:39:10;;;;;;;4.72;2.05;;;;;;;;;;5061316;28;20055;-74
2023/06/03 07:41:50;;;;;;;3.67;1.50;;;;;;;;;;5059272;28;20048;-74
2023/06/03 07:44:19;;;;;;;3.33;1.70;;;;;;;;;;5060943;28;20134;-74
2023/06/03 07:46:49;;;;;;;1.67;1.30;;;;;;;;;;5076942;28;20047;-74
2023/06/03 07:49:16;;;;;;;3.50;1.73;;;;;;;;;;5061053;28;20037;-74
2023/06/03 07:51:44;;;;;;;4.15;1.90;;;;;;;;;;5059537;28;20207;-74
2023/06/03 07:54:11;;;;;;;2.97;1.70;;;;;;;;;;5051475;28;21070;-73
2023/06/03 07:56:37;;;;;;;4.18;1.50;;;;;;;;;;5041226;28;20154;-74
2023/06/03 07:59:04;;;;;;;1.95;1.20;;;;;;;;;;5057769;28;20123;-73
2023/06/03 08:01:30;;;;;;;4.72;1.10;;;;;;;;;;5058215;28;21299;-73
2023/06/03 08:03:56;;;;;;;3.20;1.42;;;;;;;;;;5054382;28;20121;-73
2023/06/03 08:06:26;;;;;;;5.78;2.13;;;;;;;;;;5055225;28;20055;-74
2023/06/03 08:08:53;;;;;;;3.65;1.52;;;;;;;;;;5054284;28;20446;-73
2023/06/03 08:11:19;;;;;;;2.97;1.50;;;;;;;;;;5054160;28;20047;-73
2023/06/03 08:13:45;;;;;;;1.77;1.42;;;;;;;;;;5060893;28;20040;-73
2023/06/03 08:16:14;;;;;;;1.80;1.10;;;;;;;;;;5059236;28;20036;-73
2023/06/03 08:18:44;;;;;;;2.17;1.40;;;;;;;;;;5059539;28;20046;-73
2023/06/03 08:21:11;;;;;;;2.38;1.35;;;;;;;;;;5054778;28;20059;-73
2023/06/03 08:23:37;;;;;;;5.60;1.65;;;;;;;;;;5067035;28;20070;-73
2023/06/03 08:26:03;;;;;;;2.05;1.42;;;;;;;;;;5061447;28;20078;-73
2023/06/03 08:28:30;;;;;;;3.15;1.48;;;;;;;;;;5044696;28;20407;-73
2023/06/03 08:30:56;;;;;;;2.15;1.20;;;;;;;;;;5061940;28;20039;-73
2023/06/03 08:33:22;;;;;;;2.10;1.55;;;;;;;;;;5064122;28;20051;-73
2023/06/03 08:35:48;;;;;;;1.95;1.33;;;;;;;;;;5063326;28;20056;-73
2023/06/03 08:38:16;;;;;;;1.60;1.20;;;;;;;;;;5059471;28;20166;-74
2023/06/03 08:40:46;;;;;;;4.07;1.52;;;;;;;;;;5063568;28;20130;-73
2023/06/03 08:43:13;;;;;;;3.47;1.70;;;;;;;;;;5062595;28;20052;-73
2023/06/03 08:46:00;;;;;;;2.65;1.40;;;;;;;;;;5060846;28;20055;-73
2023/06/03 08:48:44;;;;;;;4.40;1.20;;;;;;;;;;5031458;28;20165;-73
2023/06/03 08:51:11;;;;;;;3.05;1.08;;;;;;;;;;5059833;28;20055;-73
2023/06/03 08:53:57;;;;;;;5.38;1.13;;;;;;;;;;5062453;28;20050;-74
2023/06/03 08:56:26;;;;;;;2.17;0.82;;;;;;;;;;5061497;28;20056;-73
2023/06/03 08:58:57;;;;;;;1.15;0.98;;;;;;;;;;5057718;28;20044;-73
2023/06/03 09:01:28;;;;;;;1.50;0.95;;;;;;;;;;5060142;28;20048;-74
2023/06/03 09:03:54;;;;;;;1.85;0.75;;;;;;;;;;5061721;28;20060;-73
2023/06/03 09:06:21;;;;;;;2.67;0.70;;;;;;;;;;5061539;28;20039;-73
2023/06/03 09:08:48;;;;;;;2.55;0.95;;;;;;;;;;5060247;28;20113;-73
2023/06/03 09:11:15;;;;;;;1.42;0.73;;;;;;;;;;5060323;28;20051;-73
2023/06/03 09:13:42;;;;;;;3.55;1.02;;;;;;;;;;5061587;28;20054;-72
2023/06/03 09:16:09;;;;;;;1.48;0.70;;;;;;;;;;5063071;28;21600;-73
2023/06/03 09:18:36;;;;;;;3.97;0.88;;;;;;;;;;5062249;28;20046;-73
2023/06/03 09:21:02;;;;;;;4.75;0.70;;;;;;;;;;5064053;28;21807;-73
2023/06/03 09:23:29;;;;;;;4.32;0.80;;;;;;;;;;5065798;28;20635;-73
2023/06/03 09:25:55;;;;;;;2.45;0.90;;;;;;;;;;5064521;28;20051;-73
2023/06/03 09:28:21;;;;;;;2.70;1.10;;;;;;;;;;5066577;28;20035;-73
2023/06/03 09:30:47;;;;;;;2.55;1.20;;;;;;;;;;5067299;28;20048;-73
2023/06/03 09:33:13;;;;;;;2.92;1.10;;;;;;;;;;5065327;28;20051;-74
2023/06/03 09:35:40;;;;;;;1.33;1.10;;;;;;;;;;5064591;28;20044;-73
2023/06/03 09:38:06;;;;;;;4.10;0.98;;;;;;;;;;5064405;28;20055;-73
2023/06/03 09:40:33;;;;;;;1.65;1.30;;;;;;;;;;5063649;28;20048;-74
2023/06/03 09:42:59;;;;;;;1.55;1.10;;;;;;;;;;5065310;28;20123;-73
2023/06/03 09:45:32;;;;;;;2.20;1.10;;;;;;;;;;5046996;28;22620;-74
2023/06/03 09:47:59;;;;;;;2.58;1.00;;;;;;;;;;5065117;28;20463;-74
2023/06/03 09:50:26;;;;;;;1.60;1.15;;;;;;;;;;5064873;28;20044;-73
2023/06/03 09:52:53;;;;;;;3.45;1.10;;;;;;;;;;5063558;28;20040;-74
2023/06/03 09:55:19;;;;;;;4.85;1.00;;;;;;;;;;5061978;28;20040;-74
2023/06/03 09:58:05;;;;;;;1.85;1.08;;;;;;;;;;5056876;28;20170;-74
2023/06/03 10:00:32;;;;;;;1.48;1.05;;;;;;;;;;5063313;28;20127;-74
2023/06/03 10:03:06;;;;;;;3.10;1.23;;;;;;;;;;5063013;28;20048;-74
2023/06/03 10:05:33;;;;;;;1.42;1.00;;;;;;;;;;5064023;28;20749;-74
2023/06/03 10:08:00;;;;;;;3.40;1.17;;;;;;;;;;5058278;28;20044;-73
2023/06/03 10:10:26;;;;;;;4.80;1.10;;;;;;;;;;5061911;28;20070;-73
2023/06/03 10:12:52;;;;;;;1.67;1.02;;;;;;;;;;5062917;28;20055;-73
2023/06/03 10:15:35;;;;;;;2.88;1.00;;;;;;;;;;5064037;28;20052;-73
2023/06/03 10:18:02;;;;;;;1.77;1.10;;;;;;;;;;5059360;28;20114;-73
2023/06/03 10:20:32;;;;;;;4.93;1.30;;;;;;;;;;5062888;28;21410;-73
2023/06/03 10:23:00;;;;;;;3.95;1.40;;;;;;;;;;5067335;28;20072;-74
2023/06/03 10:25:26;;;;;;;3.08;1.20;;;;;;;;;;5064404;28;20070;-73
2023/06/03 10:27:52;;;;;;;1.75;1.10;;;;;;;;;;5063676;28;20040;-74
2023/06/03 10:30:18;;;;;;;1.33;0.95;;;;;;;;;;5046340;28;20035;-74
2023/06/03 10:32:45;;;;;;;3.20;0.95;;;;;;;;;;5064864;28;20127;-76
2023/06/03 10:35:12;;;;;;;2.65;1.10;;;;;;;;;;5057898;28;20051;-74
2023/06/03 10:37:39;;;;;;;1.25;1.08;;;;;;;;;;5073805;28;20036;-74
2023/06/03 10:40:06;;;;;;;1.67;1.00;;;;;;;;;;5058863;28;20506;-74
2023/06/03 10:42:34;;;;;;;5.72;1.33;;;;;;;;;;5061937;28;20048;-73
2023/06/03 10:45:00;;;;;;;2.83;1.20;;;;;;;;;;5054352;28;20048;-74
2023/06/03 10:47:27;;;;;;;2.42;1.10;;;;;;;;;;5056699;28;20044;-74
2023/06/03 10:49:56;;;;;;;3.15;1.30;;;;;;;;;;5057206;28;20962;-73
2023/06/03 10:52:28;;;;;;;2.75;1.02;;;;;;;;;;5057617;28;20067;-74
2023/06/03 10:55:00;;;;;;;1.73;1.10;;;;;;;;;;5056978;28;20082;-74
2023/06/03 10:57:34;;;;;;;3.22;1.65;;;;;;;;;;5057658;28;20575;-74
2023/06/03 11:00:00;;;;;;;;;;;;;;;;;;5055120;28;20044;-75
2023/06/03 11:02:26;;;;;;;2.22;1.00;;;;;;;;;;5052668;28;19924;-75
2023/06/03 11:05:12;;;;;;;2.75;0.60;;;;;;;;;;5057044;28;20080;-75
2023/06/03 11:07:41;;;;;;;2.58;0.80;;;;;;;;;;5055204;28;20040;-75
2023/06/03 11:10:26;;;;;;;2.10;0.63;;;;;;;;;;5056865;28;20044;-75
2023/06/03 11:12:52;;;;;;;1.73;0.75;;;;;;;;;;5054040;28;20059;-75
2023/06/03 11:15:18;;;;;;;1.38;0.98;;;;;;;;;;5055131;28;20055;-75
2023/06/03 11:18:03;;;;;;;1.95;0.90;;;;;;;;;;5048066;28;20044;-75
2023/06/03 11:20:38;;;;;;;1.50;0.90;;;;;;;;;;5052781;28;22229;-75
2023/06/03 11:23:04;;;;;;;8.73;0.95;;;;;;;;;;5040986;28;20039;-75
2023/06/03 11:25:31;;;;;;;3.60;1.13;;;;;;;;;;5034667;28;20260;-75
2023/06/03 11:28:17;;;;;;;1.08;0.77;;;;;;;;;;5075763;28;22177;-75
2023/06/03 11:30:55;;;;;;;2.05;1.00;;;;;;;;;;5059580;28;20039;-75
2023/06/03 11:33:21;;;;;;;3.03;0.90;;;;;;;;;;5055200;28;20048;-75
2023/06/03 11:35:47;;;;;;;4.50;1.15;;;;;;;;;;5055874;28;20048;-75
2023/06/03 11:38:14;;;;;;;1.15;0.82;;;;;;;;;;5041914;28;20119;-75
2023/06/03 11:40:45;;;;;;;3.78;0.73;;;;;;;;;;5058192;28;20154;-75
2023/06/03 11:43:11;;;;;;;2.28;1.10;;;;;;;;;;5058213;28;20226;-75
2023/06/03 11:45:37;;;;;;;1.33;0.70;;;;;;;;;;5057860;28;20055;-75
2023/06/03 11:48:07;;;;;;;1.45;0.70;;;;;;;;;;5054070;28;20238;-75
2023/06/03 11:50:53;;;;;;;3.67;1.00;;;;;;;;;;5037153;28;20570;-75
2023/06/03 11:53:36;;;;;;;1.25;0.70;;;;;;;;;;5056914;28;20128;-75
2023/06/03 11:56:13;;;;;;;3.58;0.88;;;;;;;;;;5056320;28;20120;-75
2023/06/03 11:58:42;;;;;;;2.13;1.00;;;;;;;;;;5056919;28;20036;-74
2023/06/03 12:01:19;;;;;;;6.50;0.82;;;;;;;;;;5054766;28;20070;-75
2023/06/03 12:03:58;;;;;;;4.28;0.80;;;;;;;;;;5061608;28;20093;-75
2023/06/03 12:06:24;;;;;;;4.05;0.77;;;;;;;;;;5041046;28;20050;-74
2023/06/03 12:08:51;;;;;;;3.85;0.85;;;;;;;;;;5065006;28;20036;-73
2023/06/03 12:11:28;;;;;;;2.55;0.93;;;;;;;;;;5062123;28;20055;-74
2023/06/03 12:13:54;;;;;;;2.72;1.05;;;;;;;;;;5058326;28;20039;-72
2023/06/03 12:16:31;;;;;;;3.67;0.88;;;;;;;;;;5060367;28;20040;-72
2023/06/03 12:18:57;;;;;;;3.53;1.05;;;;;;;;;;5058999;28;20105;-72
2023/06/03 12:21:23;;;;;;;6.00;1.50;;;;;;;;;;5059435;28;20063;-72
2023/06/03 12:23:49;;;;;;;1.88;0.73;;;;;;;;;;5056792;28;20059;-72
2023/06/03 12:26:16;;;;;;;2.10;1.05;;;;;;;;;;5050197;28;20112;-72
2023/06/03 12:28:42;;;;;;;1.35;0.82;;;;;;;;;;5053531;28;20048;-72
2023/06/03 12:31:12;;;;;;;2.20;0.88;;;;;;;;;;5051123;28;20174;-72
2023/06/03 12:33:40;;;;;;;2.45;1.30;;;;;;;;;;5054308;28;20035;-71
2023/06/03 12:36:07;;;;;;;4.03;1.35;;;;;;;;;;5058299;28;20113;-72
2023/06/03 12:38:33;;;;;;;6.50;1.08;;;;;;;;;;5060114;28;20059;-72
2023/06/03 12:41:08;;;;;;;2.97;1.13;;;;;;;;;;5060924;28;20423;-72
2023/06/03 12:43:34;;;;;;;3.75;1.00;;;;;;;;;;5056385;28;20147;-72
2023/06/03 12:46:33;;;;;;;4.68;1.02;;;;;;;;;;5058303;28;20047;-73
2023/06/03 12:49:15;;;;;;;1.77;1.02;;;;;;;;;;5016405;28;22001;-75
2023/06/03 12:51:41;;;;;;;4.80;1.08;;;;;;;;;;5056536;28;20056;-75
2023/06/03 12:54:07;;;;;;;3.55;1.02;;;;;;;;;;5055883;28;20082;-75
2023/06/03 12:56:34;;;;;;;1.50;0.80;;;;;;;;;;5059581;28;20044;-76
2023/06/03 12:59:00;;;;;;;3.45;0.90;;;;;;;;;;5060767;28;20146;-75
2023/06/03 13:01:27;;;;;;;5.88;0.90;;;;;;;;;;5057289;28;20827;-76
2023/06/03 13:03:55;;;;;;;2.35;0.95;;;;;;;;;;5066399;28;20454;-77
2023/06/03 13:06:28;;;;;;;3.33;0.95;;;;;;;;;;5057391;28;20583;-75
2023/06/03 13:08:54;;;;;;;3.15;1.10;;;;;;;;;;5067037;28;20084;-74
2023/06/03 13:11:21;;;;;;;3.30;1.58;;;;;;;;;;5068367;28;20063;-75
2023/06/03 13:13:47;;;;;;;2.25;1.23;;;;;;;;;;5064931;28;20036;-75
2023/06/03 13:16:13;;;;;;;5.78;1.08;;;;;;;;;;5049351;28;20068;-75
2023/06/03 13:18:40;;;;;;;2.47;0.90;;;;;;;;;;5064059;28;21126;-75
2023/06/03 13:21:06;;;;;;;2.95;1.08;;;;;;;;;;5049352;28;20048;-74
2023/06/03 13:23:32;;;;;;;3.55;0.90;;;;;;;;;;5065277;28;20040;-75
2023/06/03 13:25:58;;;;;;;1.33;0.80;;;;;;;;;;5047377;28;20048;-75
2023/06/03 13:28:25;;;;;;;5.43;0.95;;;;;;;;;;5061650;28;20315;-75
2023/06/03 13:30:51;;;;;;;6.32;1.17;;;;;;;;;;5063660;28;20066;-74
2023/06/03 13:33:17;;;;;;;5.22;0.82;;;;;;;;;;5051826;28;20051;-74
2023/06/03 13:35:44;;;;;;;2.80;0.77;;;;;;;;;;5055451;28;20089;-73
2023/06/03 13:38:11;;;;;;;1.27;0.85;;;;;;;;;;5057301;28;20079;-73
2023/06/03 13:40:38;;;;;;;2.78;0.60;;;;;;;;;;5057621;28;20071;-73
2023/06/03 13:43:04;;;;;;;3.88;0.80;;;;;;;;;;5036570;28;20050;-74
2023/06/03 13:45:30;;;;;;;2.90;0.80;;;;;;;;;;5067934;28;20431;-73
2023/06/03 13:47:56;;;;;;;2.40;0.85;;;;;;;;;;5055205;28;20048;-72
2023/06/03 13:50:23;;;;;;;2.97;1.33;;;;;;;;;;5054045;28;20040;-74
2023/06/03 13:52:49;;;;;;;4.40;0.80;;;;;;;;;;5051433;28;20047;-73
2023/06/03 13:55:15;;;;;;;4.43;1.02;;;;;;;;;;5057967;28;20459;-73
2023/06/03 13:57:41;;;;;;;3.50;1.02;;;;;;;;;;5051980;28;20047;-73
2023/06/03 14:00:08;;;;;;;2.15;0.80;;;;;;;;;;5052895;28;22096;-73
2023/06/03 14:02:34;;;;;;;4.63;0.80;;;;;;;;;;5052505;28;20052;-73
2023/06/03 14:05:00;;;;;;;3.63;0.80;;;;;;;;;;5053861;28;20048;-73
2023/06/03 14:07:26;;;;;;;1.33;0.80;;;;;;;;;;5060469;28;20072;-73
2023/06/03 14:09:52;;;;;;;1.85;0.80;;;;;;;;;;5058423;28;20048;-73
2023/06/03 14:12:19;;;;;;;3.17;0.70;;;;;;;;;;5060290;28;20175;-73
2023/06/03 14:14:45;;;;;;;2.20;1.00;;;;;;;;;;5061836;28;20083;-73
2023/06/03 14:17:11;;;;;;;2.72;0.95;;;;;;;;;;5058411;28;20498;-73
2023/06/03 14:19:37;;;;;;;3.75;0.88;;;;;;;;;;5058818;28;20040;-72
2023/06/03 14:22:03;;;;;;;4.50;0.73;;;;;;;;;;5056913;28;20047;-73
2023/06/03 14:24:29;;;;;;;1.20;0.90;;;;;;;;;;5077144;28;20130;-73
2023/06/03 14:26:56;;;;;;;2.78;0.80;;;;;;;;;;5057963;28;20106;-73
2023/06/03 14:29:22;;;;;;;2.92;0.75;;;;;;;;;;5053223;28;20044;-73
2023/06/03 14:31:48;;;;;;;5.63;0.90;;;;;;;;;;5057213;28;20040;-73
2023/06/03 14:34:14;;;;;;;2.75;1.10;;;;;;;;;;5058427;28;20051;-73
2023/06/03 14:36:40;;;;;;;1.95;0.90;;;;;;;;;;5056192;28;20043;-73
2023/06/03 14:39:06;;;;;;;2.25;0.90;;;;;;;;;;5059119;28;20047;-73
2023/06/03 14:41:33;;;;;;;4.38;0.63;;;;;;;;;;5059729;28;20480;-73
2023/06/03 14:43:59;;;;;;;2.22;0.88;;;;;;;;;;5063661;28;20044;-73
2023/06/03 14:46:28;;;;;;;1.08;0.73;;;;;;;;;;5043517;28;20052;-73
2023/06/03 14:48:54;;;;;;;1.20;0.70;;;;;;;;;;5064319;28;20055;-72